createdAt,value
2019-05-17T00:02:11.065Z,77.83
2019-05-17T00:04:38.374Z,78.02
2019-05-17T00:07:06.572Z,78.08
2019-05-17T00:09:34.164Z,78.14
2019-05-17T00:12:01.488Z,78.07
2019-05-17T00:14:28.502Z,78.05
2019-05-17T00:16:57.347Z,78.39
2019-05-17T00:19:26.298Z,78.38
2019-05-17T00:21:53.543Z,78.18
2019-05-17T00:24:20.781Z,78.30
2019-05-17T00:26:48.189Z,78.09
2019-05-17T00:29:17.274Z,78.35
2019-05-17T00:31:46.167Z,78.40
2019-05-17T00:34:13.458Z,78.38
2019-05-17T00:36:40.907Z,78.46
2019-05-17T00:39:08.030Z,78.68
2019-05-17T00:41:37.494Z,78.74
2019-05-17T00:44:06.280Z,78.73
2019-05-17T00:46:34.170Z,78.61
2019-05-17T00:49:01.391Z,78.71
2019-05-17T00:51:29.175Z,78.63
2019-05-17T00:53:56.487Z,78.68
2019-05-17T00:56:23.835Z,78.96
2019-05-17T00:58:50.927Z,79.10
2019-05-17T01:01:18.213Z,79.08
2019-05-17T01:03:47.643Z,79.12
2019-05-17T01:06:16.947Z,79.04
2019-05-17T01:08:47.468Z,79.28
2019-05-17T01:11:16.388Z,79.13
2019-05-17T01:13:44.034Z,79.25
2019-05-17T01:16:11.176Z,79.32
2019-05-17T01:18:38.707Z,79.27
2019-05-17T01:21:07.101Z,79.12
2019-05-17T01:23:36.242Z,79.44
2019-05-17T01:26:03.965Z,79.52
2019-05-17T01:28:31.112Z,79.41
2019-05-17T01:30:58.587Z,79.57
2019-05-17T01:33:26.461Z,79.32
2019-05-17T01:35:53.922Z,79.29
2019-05-17T01:38:21.333Z,79.15
2019-05-17T01:40:48.457Z,79.15
2019-05-17T01:43:16.637Z,79.36
2019-05-17T01:45:48.026Z,79.51
2019-05-17T01:48:16.379Z,79.48
2019-05-17T01:50:43.708Z,79.35
2019-05-17T01:53:10.707Z,79.48
2019-05-17T01:55:37.948Z,79.57
2019-05-17T01:58:07.380Z,79.56
2019-05-17T02:00:37.675Z,79.32
2019-05-17T02:03:06.784Z,79.78
2019-05-17T02:05:33.629Z,79.78
2019-05-17T02:08:00.768Z,79.37
2019-05-17T02:10:27.671Z,79.44
2019-05-17T02:12:56.897Z,79.45
2019-05-17T02:15:26.647Z,79.36
2019-05-17T02:17:53.634Z,79.33
2019-05-17T02:20:21.384Z,79.26
2019-05-17T02:22:48.548Z,79.18
2019-05-17T02:25:17.647Z,79.28
2019-05-17T02:27:44.991Z,79.49
2019-05-17T02:30:14.464Z,79.68
2019-05-17T02:32:43.403Z,79.74
2019-05-17T02:35:14.407Z,79.94
2019-05-17T02:37:43.324Z,79.77
2019-05-17T02:40:14.419Z,79.77
2019-05-17T02:42:42.969Z,79.69
2019-05-17T02:45:13.504Z,80.28
2019-05-17T02:47:43.720Z,80.17
2019-05-17T02:50:12.937Z,80.17
2019-05-17T02:52:43.549Z,80.17
2019-05-17T02:55:12.788Z,79.82
2019-05-17T02:57:43.316Z,80.27
2019-05-17T03:00:13.497Z,80.45
2019-05-17T03:02:43.384Z,80.63
2019-05-17T03:05:12.815Z,80.62
2019-05-17T03:07:43.667Z,80.82
2019-05-17T03:10:18.124Z,80.62
2019-05-17T03:12:39.190Z,80.65
2019-05-17T03:15:07.308Z,80.88
2019-05-17T03:17:34.555Z,80.89
2019-05-17T03:20:04.412Z,80.79
2019-05-17T03:22:33.124Z,81.04
2019-05-17T03:25:03.190Z,81.04
2019-05-17T03:27:29.917Z,80.88
2019-05-17T03:29:57.207Z,81.07
2019-05-17T03:32:26.524Z,81.25
2019-05-17T03:34:56.395Z,81.27
2019-05-17T03:37:30.127Z,81.19
2019-05-17T03:39:53.680Z,81.03
2019-05-17T03:42:22.647Z,81.15
2019-05-17T03:44:52.913Z,81.15
2019-05-17T03:47:22.466Z,81.29
2019-05-17T03:49:47.846Z,81.21
2019-05-17T03:52:14.778Z,81.73
2019-05-17T03:54:42.993Z,81.73
2019-05-17T03:57:13.410Z,81.49
2019-05-17T03:59:42.910Z,81.42
2019-05-17T04:02:08.411Z,81.17
2019-05-17T04:04:35.733Z,80.82
2019-05-17T04:07:03.555Z,80.64
2019-05-17T04:09:32.882Z,80.51
2019-05-17T04:12:02.808Z,80.35
2019-05-17T04:14:29.304Z,80.18
2019-05-17T04:16:56.386Z,80.21
2019-05-17T04:19:23.392Z,80.20
2019-05-17T04:21:53.568Z,80.45
2019-05-17T04:24:22.911Z,80.42
2019-05-17T04:26:52.009Z,80.29
2019-05-17T04:29:22.409Z,80.42
2019-05-17T04:31:48.560Z,80.57
2019-05-17T04:34:15.592Z,80.54
2019-05-17T04:36:43.372Z,80.63
2019-05-17T04:39:13.420Z,80.47
2019-05-17T04:41:46.931Z,80.31
2019-05-17T04:44:08.953Z,80.62
2019-05-17T04:46:35.920Z,80.48
2019-05-17T04:49:03.249Z,80.49
2019-05-17T04:51:32.229Z,80.10
2019-05-17T04:54:02.957Z,80.08
2019-05-17T04:56:28.475Z,80.06
2019-05-17T04:58:55.631Z,80.10
2019-05-17T05:01:23.595Z,79.30
2019-05-17T05:03:52.498Z,78.78
2019-05-17T05:06:23.305Z,78.40
2019-05-17T05:08:52.871Z,77.90
2019-05-17T05:11:23.324Z,78.16
2019-05-17T05:13:53.094Z,77.11
2019-05-17T05:16:22.631Z,77.26
2019-05-17T05:18:52.121Z,76.95
2019-05-17T05:21:22.847Z,77.01
2019-05-17T05:23:54.420Z,77.33
2019-05-17T05:26:22.259Z,76.78
2019-05-17T05:28:49.804Z,76.48
2019-05-17T05:31:16.963Z,76.98
2019-05-17T05:33:44.414Z,76.77
2019-05-17T05:36:11.499Z,76.30
2019-05-17T05:38:38.685Z,75.98
2019-05-17T05:41:05.718Z,75.85
2019-05-17T05:43:32.978Z,75.78
2019-05-17T05:46:02.336Z,75.93
2019-05-17T05:48:29.069Z,75.52
2019-05-17T05:50:56.270Z,75.41
2019-05-17T05:53:23.279Z,75.51
2019-05-17T05:55:51.790Z,75.48
2019-05-17T05:58:24.052Z,75.54
2019-05-17T06:00:52.917Z,75.49
2019-05-17T06:03:22.366Z,75.85
2019-05-17T06:05:48.952Z,75.33
2019-05-17T06:08:16.053Z,75.59
2019-05-17T06:10:43.078Z,75.23
2019-05-17T06:13:12.731Z,75.23
2019-05-17T06:15:39.436Z,74.89
2019-05-17T06:18:08.090Z,74.91
2019-05-17T06:20:35.480Z,74.64
2019-05-17T06:23:02.900Z,74.57
2019-05-17T06:25:33.781Z,74.73
2019-05-17T06:28:01.409Z,74.81
2019-05-17T06:30:28.513Z,74.50
2019-05-17T06:32:55.619Z,74.20
2019-05-17T06:35:22.763Z,74.03
2019-05-17T06:37:49.651Z,74.01
2019-05-17T06:40:16.979Z,73.81
2019-05-17T06:42:45.564Z,73.46
2019-05-17T06:45:13.690Z,73.56
2019-05-17T06:47:42.608Z,73.98
2019-05-17T06:50:10.699Z,73.96
2019-05-17T06:52:37.494Z,73.64
2019-05-17T06:55:06.030Z,73.92
2019-05-17T06:57:33.472Z,73.77
2019-05-17T07:00:03.255Z,73.73
2019-05-17T07:02:30.835Z,73.38
2019-05-17T07:05:01.533Z,73.05
2019-05-17T07:07:30.478Z,73.22
2019-05-17T07:10:00.504Z,73.20
2019-05-17T07:12:30.464Z,72.88
2019-05-17T07:14:58.433Z,72.50
2019-05-17T07:17:25.929Z,71.91
2019-05-17T07:19:52.727Z,71.84
2019-05-17T07:22:21.254Z,70.57
2019-05-17T07:24:50.265Z,70.16
2019-05-17T07:27:19.374Z,68.71
2019-05-17T07:30:06.651Z,69.20
2019-05-17T07:32:33.601Z,68.47
2019-05-17T07:35:00.828Z,68.26
2019-05-17T07:37:30.118Z,69.03
2019-05-17T07:40:01.092Z,67.97
2019-05-17T07:42:25.615Z,66.86
2019-05-17T07:44:52.929Z,66.18
2019-05-17T07:47:20.386Z,65.46
2019-05-17T07:49:49.447Z,65.46
2019-05-17T07:52:16.752Z,63.96
2019-05-17T07:54:44.266Z,65.53
2019-05-17T07:57:11.219Z,63.35
2019-05-17T07:59:39.757Z,63.28
2019-05-17T08:02:07.182Z,61.68
2019-05-17T08:04:34.339Z,60.57
2019-05-17T08:07:02.220Z,61.66
2019-05-17T08:09:30.092Z,61.57
2019-05-17T08:11:59.586Z,62.79
2019-05-17T08:14:30.221Z,61.17
2019-05-17T08:16:55.207Z,60.22
2019-05-17T08:19:22.270Z,60.07
2019-05-17T08:21:50.230Z,62.27
2019-05-17T08:24:19.586Z,60.04
2019-05-17T08:26:46.587Z,61.29
2019-05-17T08:29:13.641Z,60.63
2019-05-17T08:31:40.682Z,61.17
2019-05-17T08:34:10.234Z,60.62
2019-05-17T08:36:37.083Z,62.63
2019-05-17T08:39:05.684Z,61.41
2019-05-17T08:41:33.054Z,62.22
2019-05-17T08:44:00.654Z,60.51
2019-05-17T08:46:30.466Z,59.81
2019-05-17T08:49:00.101Z,60.24
2019-05-17T08:51:26.528Z,60.65
2019-05-17T08:53:53.531Z,60.57
2019-05-17T08:56:20.670Z,59.43
2019-05-17T08:58:49.701Z,60.00
2019-05-17T09:01:19.401Z,61.68
2019-05-17T09:03:45.809Z,60.78
2019-05-17T09:06:13.056Z,59.00
2019-05-17T09:08:40.621Z,58.86
2019-05-17T09:11:09.902Z,57.87
2019-05-17T09:13:37.031Z,58.13
2019-05-17T09:16:04.134Z,59.09
2019-05-17T09:18:31.558Z,59.43
2019-05-17T09:21:02.219Z,56.11
2019-05-17T09:23:30.463Z,57.37
2019-05-17T09:25:59.496Z,57.29
2019-05-17T09:28:26.925Z,56.52
2019-05-17T09:30:54.038Z,56.84
2019-05-17T09:33:21.170Z,55.75
2019-05-17T09:35:49.953Z,55.21
2019-05-17T09:38:17.232Z,54.66
2019-05-17T09:40:44.124Z,54.56
2019-05-17T09:43:11.255Z,54.82
2019-05-17T09:45:40.320Z,54.13
2019-05-17T09:48:10.262Z,54.45
2019-05-17T09:50:39.875Z,55.52
2019-05-17T09:53:06.737Z,55.66
2019-05-17T09:55:34.025Z,54.54
2019-05-17T09:58:01.303Z,55.05
2019-05-17T10:00:29.666Z,56.85
2019-05-17T10:02:57.003Z,55.93
2019-05-17T10:05:24.210Z,56.02
2019-05-17T10:07:51.488Z,56.90
2019-05-17T10:10:20.274Z,56.46
2019-05-17T10:12:49.685Z,57.53
2019-05-17T10:15:20.501Z,57.09
2019-05-17T10:17:46.987Z,57.96
2019-05-17T10:20:14.193Z,57.87
2019-05-17T10:22:41.216Z,57.88
2019-05-17T10:25:09.618Z,57.64
2019-05-17T10:27:37.672Z,58.08
2019-05-17T10:30:05.989Z,58.21
2019-05-17T10:32:33.498Z,58.03
2019-05-17T10:35:00.630Z,58.58
2019-05-17T10:37:30.145Z,59.25
2019-05-17T10:39:57.103Z,59.88
2019-05-17T10:42:24.098Z,61.22
2019-05-17T10:44:54.518Z,61.73
2019-05-17T10:47:20.546Z,62.92
2019-05-17T10:49:49.631Z,64.59
2019-05-17T10:52:16.675Z,65.48
2019-05-17T10:54:43.881Z,65.12
2019-05-17T10:57:11.075Z,65.00
2019-05-17T10:59:38.284Z,65.10
2019-05-17T11:02:05.530Z,64.69
2019-05-17T11:04:32.585Z,65.56
2019-05-17T11:06:59.705Z,65.40
2019-05-17T11:09:27.228Z,65.10
2019-05-17T11:11:54.551Z,65.88
2019-05-17T11:14:21.884Z,66.24
2019-05-17T11:16:49.120Z,66.48
2019-05-17T11:19:17.703Z,66.20
2019-05-17T11:21:44.729Z,65.53
2019-05-17T11:24:11.646Z,65.79
2019-05-17T11:26:38.710Z,65.46
2019-05-17T11:29:07.063Z,64.99
2019-05-17T11:31:34.314Z,65.37
2019-05-17T11:34:02.082Z,64.69
2019-05-17T11:36:29.387Z,64.66
2019-05-17T11:38:56.354Z,65.08
2019-05-17T11:41:23.463Z,64.35
2019-05-17T11:43:50.626Z,63.83
2019-05-17T11:46:17.679Z,64.12
2019-05-17T11:48:44.810Z,64.71
2019-05-17T11:51:12.011Z,64.56
2019-05-17T11:53:39.006Z,63.89
2019-05-17T11:56:06.399Z,64.13
2019-05-17T11:58:33.303Z,64.65
2019-05-17T12:01:00.419Z,65.90
2019-05-17T12:03:27.424Z,65.98
2019-05-17T12:05:54.745Z,66.69
2019-05-17T12:08:22.062Z,66.41
2019-05-17T12:10:49.281Z,67.46
2019-05-17T12:13:16.544Z,67.58
2019-05-17T12:15:45.436Z,66.59
2019-05-17T12:18:12.704Z,66.60
2019-05-17T12:20:39.895Z,66.51
2019-05-17T12:23:07.254Z,64.96
2019-05-17T12:25:34.569Z,65.76
2019-05-17T12:28:02.220Z,65.24
2019-05-17T12:30:29.380Z,64.22
2019-05-17T12:32:56.401Z,64.47
2019-05-17T12:35:23.716Z,65.48
2019-05-17T12:37:50.717Z,65.32
2019-05-17T12:40:18.371Z,65.51
2019-05-17T12:42:45.628Z,65.55
2019-05-17T12:45:13.713Z,66.17
2019-05-17T12:47:40.866Z,67.40
2019-05-17T12:50:10.491Z,69.38
2019-05-17T12:52:37.743Z,70.10
2019-05-17T12:55:05.771Z,69.78
2019-05-17T12:57:32.701Z,68.30
2019-05-17T12:59:59.858Z,70.29
2019-05-17T13:02:27.242Z,68.67
2019-05-17T13:04:54.938Z,68.34
2019-05-17T13:07:21.989Z,68.26
2019-05-17T13:09:48.921Z,68.40
2019-05-17T13:12:15.942Z,69.00
2019-05-17T13:14:42.935Z,69.71
2019-05-17T13:17:10.006Z,69.68
2019-05-17T13:19:37.184Z,70.66
2019-05-17T13:22:04.380Z,69.27
2019-05-17T13:24:31.439Z,70.41
2019-05-17T13:26:58.847Z,71.09
2019-05-17T13:29:25.826Z,71.24
2019-05-17T13:31:52.767Z,71.23
2019-05-17T13:34:19.763Z,72.40
2019-05-17T13:36:47.559Z,72.33
2019-05-17T13:39:14.643Z,72.17
2019-05-17T13:41:41.692Z,71.52
2019-05-17T13:44:08.823Z,73.24
2019-05-17T13:46:35.865Z,72.58
2019-05-17T13:49:03.205Z,72.89
2019-05-17T13:51:30.407Z,72.65
2019-05-17T13:53:57.675Z,73.48
2019-05-17T13:56:25.192Z,72.27
2019-05-17T13:58:52.163Z,73.04
2019-05-17T14:01:19.440Z,73.10
2019-05-17T14:03:46.465Z,73.36
2019-05-17T14:06:13.735Z,72.27
2019-05-17T14:08:41.309Z,73.47
2019-05-17T14:11:08.562Z,73.67
2019-05-17T14:13:35.660Z,74.26
2019-05-17T14:16:02.940Z,74.37
2019-05-17T14:18:30.021Z,74.39
2019-05-17T14:20:57.592Z,73.22
2019-05-17T14:23:24.664Z,73.84
2019-05-17T14:25:51.718Z,72.35
2019-05-17T14:28:18.602Z,73.97
2019-05-17T14:30:46.065Z,73.72
2019-05-17T14:33:13.305Z,73.76
2019-05-17T14:35:40.469Z,73.45
2019-05-17T14:38:07.492Z,73.39
2019-05-17T14:41:03.945Z,73.28
2019-05-17T14:43:03.672Z,74.18
2019-05-17T14:45:31.231Z,73.40
2019-05-17T14:47:58.376Z,73.58
2019-05-17T14:50:25.845Z,73.96
2019-05-17T14:52:52.855Z,73.44
2019-05-17T14:55:19.930Z,74.47
2019-05-17T14:57:47.063Z,75.40
2019-05-17T15:00:15.146Z,74.30
2019-05-17T15:02:42.513Z,74.57
2019-05-17T15:05:10.233Z,73.52
2019-05-17T15:07:37.413Z,72.37
2019-05-17T15:10:06.250Z,73.72
2019-05-17T15:12:33.268Z,72.17
2019-05-17T15:15:00.483Z,72.17
2019-05-17T15:17:27.625Z,71.22
2019-05-17T15:19:54.574Z,71.67
2019-05-17T15:22:21.529Z,71.44
2019-05-17T15:24:48.904Z,70.11
2019-05-17T15:27:15.917Z,70.14
2019-05-17T15:29:43.373Z,69.29
2019-05-17T15:32:10.427Z,70.11
2019-05-17T15:34:37.345Z,70.14
2019-05-17T15:37:04.399Z,69.40
2019-05-17T15:39:31.870Z,70.04
2019-05-17T15:41:59.191Z,69.70
2019-05-17T15:44:27.036Z,69.15
2019-05-17T15:46:54.431Z,68.74
2019-05-17T15:49:21.493Z,68.34
2019-05-17T15:51:48.642Z,68.88
2019-05-17T15:54:15.557Z,68.14
2019-05-17T15:56:42.984Z,69.23
2019-05-17T15:59:10.002Z,68.57
2019-05-17T16:01:37.469Z,68.88
2019-05-17T16:04:04.622Z,68.39
2019-05-17T16:06:31.968Z,69.07
2019-05-17T16:08:59.065Z,67.54
2019-05-17T16:11:26.178Z,68.75
2019-05-17T16:13:53.188Z,67.71
2019-05-17T16:16:20.222Z,67.00
2019-05-17T16:18:47.615Z,68.29
2019-05-17T16:21:14.517Z,67.93
2019-05-17T16:23:41.555Z,67.32
2019-05-17T16:26:08.472Z,68.45
2019-05-17T16:28:35.540Z,67.53
2019-05-17T16:31:03.124Z,67.77
2019-05-17T16:33:30.365Z,68.04
2019-05-17T16:35:57.371Z,68.63
2019-05-17T16:38:24.481Z,69.16
2019-05-17T16:40:51.760Z,69.48
2019-05-17T16:43:18.880Z,69.86
2019-05-17T16:45:45.791Z,70.26
2019-05-17T16:48:12.991Z,70.38
2019-05-17T16:50:40.141Z,72.51
2019-05-17T16:53:07.443Z,72.78
2019-05-17T16:55:34.517Z,72.54
2019-05-17T16:58:01.448Z,72.07
2019-05-17T17:00:42.591Z,72.64
2019-05-17T17:03:09.829Z,73.91
2019-05-17T17:05:37.103Z,75.05
2019-05-17T17:08:05.470Z,75.65
2019-05-17T17:10:32.707Z,76.09
2019-05-17T17:13:00.228Z,75.50
2019-05-17T17:15:27.527Z,75.08
2019-05-17T17:17:54.780Z,74.69
2019-05-17T17:20:22.146Z,74.06
2019-05-17T17:22:49.394Z,73.40
2019-05-17T17:25:16.626Z,74.68
2019-05-17T17:27:43.755Z,75.23
2019-05-17T17:30:12.573Z,75.52
2019-05-17T17:32:39.716Z,75.24
2019-05-17T17:35:07.704Z,74.78
2019-05-17T17:37:34.797Z,74.47
2019-05-17T17:40:04.691Z,74.93
2019-05-17T17:42:31.724Z,75.59
2019-05-17T17:44:58.660Z,75.39
2019-05-17T17:47:26.436Z,75.33
2019-05-17T17:49:53.658Z,75.94
2019-05-17T17:52:20.668Z,76.46
2019-05-17T17:54:48.072Z,76.64
2019-05-17T17:57:15.218Z,76.81
2019-05-17T17:59:42.269Z,76.09
2019-05-17T18:02:09.462Z,76.41
2019-05-17T18:04:36.419Z,76.53
2019-05-17T18:07:04.357Z,76.79
2019-05-17T18:09:31.387Z,77.19
2019-05-17T18:11:58.782Z,77.08
2019-05-17T18:14:27.963Z,77.04
2019-05-17T18:16:54.950Z,76.48
2019-05-17T18:19:21.944Z,76.60
2019-05-17T18:21:50.332Z,76.10
2019-05-17T18:24:17.533Z,76.00
2019-05-17T18:26:44.586Z,76.53
2019-05-17T18:29:11.759Z,76.84
2019-05-17T18:31:38.729Z,76.45
2019-05-17T18:34:05.778Z,76.07
2019-05-17T18:36:32.820Z,76.29
2019-05-17T18:39:01.722Z,75.97
2019-05-17T18:41:28.765Z,76.99
2019-05-17T18:43:55.902Z,77.49
2019-05-17T18:46:23.150Z,77.82
2019-05-17T18:48:50.345Z,77.33
2019-05-17T18:51:17.713Z,76.95
2019-05-17T18:53:45.245Z,77.75
2019-05-17T18:56:12.296Z,78.33
2019-05-17T18:58:39.499Z,78.19
2019-05-17T19:01:06.913Z,79.28
2019-05-17T19:03:34.063Z,79.55
2019-05-17T19:06:01.769Z,79.71
2019-05-17T19:08:28.943Z,79.82
2019-05-17T19:10:56.077Z,80.23
2019-05-17T19:13:22.916Z,80.26
2019-05-17T19:15:50.177Z,80.26
2019-05-17T19:18:17.164Z,80.34
2019-05-17T19:20:44.978Z,80.59
2019-05-17T19:23:11.986Z,80.80
2019-05-17T19:25:39.406Z,80.56
2019-05-17T19:28:06.552Z,80.32
2019-05-17T19:39:05.260Z,82.24
2019-05-17T19:41:33.034Z,81.22
2019-05-17T19:44:00.091Z,80.89
2019-05-17T19:46:27.147Z,80.71
2019-05-17T19:48:54.256Z,80.15
2019-05-17T19:51:21.389Z,79.13
2019-05-17T19:53:48.336Z,79.27
2019-05-17T19:56:15.364Z,79.52
2019-05-17T19:58:42.612Z,79.60
2019-05-17T20:01:09.717Z,79.63
2019-05-17T20:03:36.897Z,79.69
2019-05-17T20:06:04.214Z,78.98
2019-05-17T20:08:31.345Z,78.43
2019-05-17T20:10:58.908Z,78.49
2019-05-17T20:13:26.079Z,78.67
2019-05-17T20:15:53.238Z,78.38
2019-05-17T20:18:20.344Z,78.15
2019-05-17T20:20:47.444Z,78.43
2019-05-17T20:23:14.516Z,79.38
2019-05-17T20:25:41.497Z,78.78
2019-05-17T20:28:08.691Z,78.80
2019-05-17T20:30:35.707Z,78.29
2019-05-17T20:33:03.174Z,78.86
2019-05-17T20:35:30.267Z,79.31
2019-05-17T20:37:59.609Z,79.52
2019-05-17T20:40:26.625Z,79.57
2019-05-17T20:42:53.663Z,80.12
2019-05-17T20:45:32.712Z,80.97
2019-05-17T20:47:49.867Z,80.63
2019-05-17T20:50:18.345Z,80.48
2019-05-17T20:52:45.304Z,81.74
2019-05-17T20:55:14.915Z,81.75
2019-05-17T20:57:42.139Z,81.75
2019-05-17T21:00:10.762Z,81.51
2019-05-17T21:02:37.994Z,81.58
2019-05-17T21:05:06.742Z,81.76
2019-05-17T21:07:34.225Z,82.18
2019-05-17T21:10:03.080Z,81.95
2019-05-17T21:12:29.998Z,81.75
2019-05-17T21:14:58.140Z,81.51
2019-05-17T21:17:25.160Z,80.85
2019-05-17T21:19:52.089Z,80.29
2019-05-17T21:22:19.255Z,80.67
2019-05-17T21:24:46.606Z,81.00
2019-05-17T21:27:13.620Z,81.40
2019-05-17T21:29:41.023Z,80.98
2019-05-17T21:32:08.079Z,81.34
2019-05-17T21:34:35.655Z,81.48
2019-05-17T21:37:02.807Z,81.50
2019-05-17T21:39:29.727Z,81.29
2019-05-17T21:41:57.538Z,81.78
2019-05-17T21:44:24.734Z,81.75
2019-05-17T21:47:03.696Z,81.86
2019-05-17T21:49:20.752Z,81.62
2019-05-17T21:51:47.726Z,81.40
2019-05-17T21:54:14.994Z,81.61
2019-05-17T21:56:42.218Z,81.61
2019-05-17T21:59:12.492Z,81.18
2019-05-17T22:01:38.480Z,81.11
2019-05-17T22:04:06.109Z,82.14
2019-05-17T22:06:33.187Z,82.14
2019-05-17T22:09:00.692Z,82.29
2019-05-17T22:11:27.833Z,81.92
2019-05-17T22:13:54.960Z,81.48
2019-05-17T22:16:22.126Z,81.89
2019-05-17T22:18:49.276Z,81.42
2019-05-17T22:21:16.683Z,81.25
2019-05-17T22:23:44.183Z,81.34
2019-05-17T22:26:11.447Z,81.57
2019-05-17T22:28:38.481Z,81.82
2019-05-17T22:31:05.917Z,81.93
2019-05-17T22:33:32.975Z,82.01
2019-05-17T22:35:59.991Z,81.54
2019-05-17T22:38:27.027Z,81.87
2019-05-17T22:40:54.174Z,82.05
2019-05-17T22:43:21.363Z,81.38
2019-05-17T22:45:48.571Z,81.86
2019-05-17T22:48:15.715Z,81.38
2019-05-17T22:50:42.843Z,81.38
2019-05-17T22:53:10.352Z,80.94
2019-05-17T22:55:39.398Z,80.85
2019-05-17T22:58:06.588Z,80.74
2019-05-17T23:00:33.605Z,80.45
2019-05-17T23:03:00.921Z,80.27
2019-05-17T23:05:28.282Z,81.44
2019-05-17T23:07:55.567Z,81.44
2019-05-17T23:10:22.655Z,81.30
2019-05-17T23:12:49.776Z,81.09
2019-05-17T23:15:17.374Z,80.75
2019-05-17T23:17:44.530Z,80.98
2019-05-17T23:20:12.719Z,81.67
2019-05-17T23:22:39.802Z,82.71
2019-05-17T23:25:07.746Z,82.71
2019-05-17T23:27:34.844Z,82.81
2019-05-17T23:30:04.238Z,82.89
2019-05-17T23:32:31.148Z,83.22
2019-05-17T23:34:58.358Z,83.27
2019-05-17T23:37:25.378Z,83.68
2019-05-17T23:39:54.645Z,83.70
2019-05-17T23:42:22.065Z,83.76
2019-05-17T23:44:49.160Z,83.66
2019-05-17T23:47:16.436Z,83.59
2019-05-17T23:49:43.414Z,83.49
2019-05-17T23:52:10.651Z,83.17
2019-05-17T23:54:38.646Z,82.59
2019-05-17T23:57:05.999Z,82.50
2019-05-17T23:59:33.152Z,81.66
